Time;durP1;ratioP1;P1;durP2;ratioP2;P2;SDS_P1;SDS_P2;PMS_P1;PMS_P2;Temp;Humidity;BMP_temperature;BMP_pressure;BME280_temperature;BME280_humidity;BME280_pressure;Samples;Min_cycle;Max_cycle;Signal;HPM_P1;HPM_P2
2023/04/30 00:00:13;;;;;;;9.05;3.70;;;12.80;99.90;;;;;;4974286;28;20539;-56
2023/04/30 00:02:39;;;;;;;9.13;3.78;;;12.80;1.00;;;;;;4974235;28;20388;-56
2023/04/30 00:05:05;;;;;;;9.83;4.00;;;12.70;1.00;;;;;;4973744;28;20399;-56
2023/04/30 00:07:31;;;;;;;9.18;4.00;;;12.80;1.00;;;;;;4974566;28;20391;-56
2023/04/30 00:09:56;;;;;;;10.45;4.10;;;12.70;99.90;;;;;;4973705;28;20388;-56
2023/04/30 00:12:22;;;;;;;10.50;4.13;;;12.80;99.90;;;;;;4974145;28;20381;-56
2023/04/30 00:14:48;;;;;;;10.50;4.70;;;12.70;99.90;;;;;;4974071;28;20539;-56
2023/04/30 00:17:14;;;;;;;12.83;4.60;;;12.70;99.90;;;;;;4974006;28;20389;-56
2023/04/30 00:19:40;;;;;;;9.23;4.13;;;12.70;37.50;;;;;;4974208;28;20392;-56
2023/04/30 00:22:06;;;;;;;11.15;4.90;;;12.70;72.50;;;;;;4973358;28;20432;-56
2023/04/30 00:24:31;;;;;;;12.20;4.23;;;12.50;13.20;;;;;;4973944;28;20450;-56
2023/04/30 00:26:57;;;;;;;11.15;5.07;;;12.80;99.90;;;;;;4973612;28;20420;-56
2023/04/30 00:29:22;;;;;;;10.30;4.75;;;12.80;1.00;;;;;;4974229;28;20440;-56
2023/04/30 00:31:48;;;;;;;10.67;4.70;;;12.80;1.00;;;;;;4973797;28;20925;-56
2023/04/30 00:34:14;;;;;;;9.90;4.37;;;12.80;1.00;;;;;;4973263;28;20396;-55
2023/04/30 00:36:39;;;;;;;11.15;4.40;;;12.80;1.00;;;;;;4973911;28;20719;-56
2023/04/30 00:39:05;;;;;;;11.20;4.67;;;12.80;1.00;;;;;;4973083;28;20723;-56
2023/04/30 00:41:32;;;;;;;10.43;4.90;;;12.80;1.00;;;;;;4973829;28;20429;-55
2023/04/30 00:43:58;;;;;;;9.90;4.97;;;12.80;1.00;;;;;;4972708;28;20731;-56
2023/04/30 00:46:23;;;;;;;10.35;5.10;;;12.90;1.00;;;;;;4973509;28;20403;-56
2023/04/30 00:48:49;;;;;;;12.57;5.67;;;12.90;1.00;;;;;;4973224;28;20527;-55
2023/04/30 00:51:15;;;;;;;11.15;4.75;;;12.80;1.00;;;;;;4973627;28;20391;-56
2023/04/30 00:53:42;;;;;;;15.07;7.10;;;12.80;1.00;;;;;;4973738;28;20447;-55
2023/04/30 00:56:08;;;;;;;10.23;5.00;;;12.80;1.00;;;;;;4973019;28;20709;-56
2023/04/30 00:58:34;;;;;;;12.77;5.38;;;12.70;1.00;;;;;;4973679;28;20404;-55
2023/04/30 01:01:01;;;;;;;14.25;5.43;;;12.50;99.90;;;;;;4972819;28;20392;-56
2023/04/30 01:03:27;;;;;;;12.57;5.47;;;12.50;99.90;;;;;;4973427;28;20393;-55
2023/04/30 01:05:53;;;;;;;13.15;5.57;;;12.60;1.00;;;;;;4971417;28;20824;-56
2023/04/30 01:08:19;;;;;;;11.45;5.15;;;12.60;1.00;;;;;;4973130;28;20463;-56
2023/04/30 01:10:55;;;;;;;11.38;5.30;;;12.60;1.00;;;;;;4973114;28;20389;-56
2023/04/30 01:13:38;;;;;;;12.57;5.28;;;12.70;1.00;;;;;;4973193;28;20381;-56
2023/04/30 01:16:16;;;;;;;13.50;5.90;;;12.70;1.00;;;;;;4972178;28;20972;-56
2023/04/30 01:19:03;;;;;;;12.13;5.60;;;12.60;1.00;;;;;;4973178;28;20380;-56
2023/04/30 01:21:32;;;;;;;13.00;5.90;;;12.60;1.00;;;;;;4972958;28;20737;-56
2023/04/30 01:24:12;;;;;;;11.02;4.88;;;12.60;1.00;;;;;;4972338;28;20379;-56
2023/04/30 01:26:56;;;;;;;13.38;5.85;;;12.60;1.00;;;;;;4972983;28;20415;-56
2023/04/30 01:29:24;;;;;;;11.90;5.63;;;12.60;1.00;;;;;;4972946;28;20424;-56
2023/04/30 01:31:50;;;;;;;12.25;5.53;;;12.60;1.00;;;;;;4965006;28;20399;-56
2023/04/30 01:34:15;;;;;;;14.50;6.07;;;12.40;1.00;;;;;;4972563;28;20385;-56
2023/04/30 01:37:19;;;;;;;13.53;5.87;;;12.40;1.00;;;;;;4972477;28;20416;-56
2023/04/30 01:40:19;;;;;;;12.65;6.53;;;12.40;1.00;;;;;;4972742;28;20442;-56
2023/04/30 01:42:55;;;;;;;12.60;5.60;;;12.30;46.40;;;;;;4972724;28;20479;-55
2023/04/30 01:45:46;;;;;;;12.98;6.40;;;12.30;99.90;;;;;;4973007;28;20399;-56
2023/04/30 01:48:21;;;;;;;11.98;5.78;;;12.20;99.90;;;;;;4972026;28;20933;-56
2023/04/30 01:50:48;;;;;;;13.68;6.20;;;12.20;99.90;;;;;;4972549;28;20407;-56
2023/04/30 01:53:23;;;;;;;13.23;6.00;;;12.20;99.90;;;;;;4971763;28;20880;-56
2023/04/30 01:55:56;;;;;;;13.02;6.10;;;12.20;99.90;;;;;;4972198;28;20624;-56
2023/04/30 01:58:23;;;;;;;15.13;6.60;;;12.20;99.90;;;;;;4972688;28;20811;-56
2023/04/30 02:00:49;;;;;;;14.27;6.55;;;12.30;1.00;;;;;;4972159;28;20396;-56
2023/04/30 02:03:15;;;;;;;15.27;7.13;;;12.30;99.90;;;;;;4971888;28;20399;-56
2023/04/30 02:05:40;;;;;;;15.40;6.68;;;12.30;99.90;;;;;;4972478;28;20389;-56
2023/04/30 02:08:06;;;;;;;14.40;6.80;;;12.40;99.90;;;;;;4971672;28;20392;-56
2023/04/30 02:10:32;;;;;;;14.37;5.80;;;12.40;99.90;;;;;;4971882;28;20751;-56
2023/04/30 02:12:57;;;;;;;12.68;5.90;;;12.40;99.90;;;;;;4971726;28;20404;-56
2023/04/30 02:15:23;;;;;;;13.60;6.80;;;12.30;99.90;;;;;;4972031;28;20439;-55
2023/04/30 02:17:49;;;;;;;16.20;6.95;;;12.30;99.90;;;;;;4970846;28;20424;-56
2023/04/30 02:20:14;;;;;;;13.80;6.60;;;12.20;1.00;;;;;;4971439;28;20387;-56
2023/04/30 02:22:40;;;;;;;15.33;6.40;;;13.20;13.30;;;;;;4971550;28;20742;-55
2023/04/30 02:25:06;;;;;;;12.52;6.43;;;12.10;1.00;;;;;;4971068;28;20747;-56
2023/04/30 02:27:32;;;;;;;14.52;7.10;;;12.00;99.90;;;;;;4971503;28;20889;-55
2023/04/30 02:29:58;;;;;;;14.50;7.15;;;12.10;89.80;;;;;;4970782;28;20557;-56
2023/04/30 02:32:24;;;;;;;14.35;6.57;;;12.10;1.00;;;;;;4971918;28;20486;-56
2023/04/30 02:34:50;;;;;;;15.80;7.22;;;12.00;89.60;;;;;;4971427;28;20428;-55
2023/04/30 02:37:16;;;;;;;14.60;7.10;;;11.90;99.90;;;;;;4970917;28;20428;-56
2023/04/30 02:39:41;;;;;;;11.88;5.90;;;12.00;99.90;;;;;;4971812;28;20872;-56
2023/04/30 02:42:07;;;;;;;16.20;7.30;;;12.00;1.00;;;;;;4971395;28;20388;-56
2023/04/30 02:44:33;;;;;;;12.88;6.82;;;12.00;99.90;;;;;;4971730;28;20802;-56
2023/04/30 02:46:59;;;;;;;14.00;6.82;;;12.00;99.90;;;;;;4969397;28;20925;-55
2023/04/30 02:49:25;;;;;;;14.60;6.30;;;12.10;99.90;;;;;;4971451;28;20406;-56
2023/04/30 02:51:51;;;;;;;12.20;6.30;;;12.10;20.30;;;;;;4971103;28;20396;-56
2023/04/30 02:54:17;;;;;;;18.02;6.90;;;12.20;1.00;;;;;;4971021;28;20798;-56
2023/04/30 02:56:43;;;;;;;13.75;6.55;;;12.20;1.00;;;;;;4971405;28;20412;-55
2023/04/30 02:59:09;;;;;;;12.23;6.40;;;12.10;66.70;;;;;;4970666;28;20389;-55
2023/04/30 03:01:35;;;;;;;14.93;6.78;;;12.00;99.90;;;;;;4971636;28;20384;-55
2023/04/30 03:04:02;;;;;;;12.43;6.22;;;11.80;1.00;;;;;;4970286;28;20388;-56
2023/04/30 03:06:28;;;;;;;13.43;7.00;;;11.90;99.90;;;;;;4971535;28;20396;-56
2023/04/30 03:08:54;;;;;;;14.43;6.60;;;11.80;35.80;;;;;;4970382;28;20527;-56
2023/04/30 03:11:20;;;;;;;13.23;6.27;;;11.90;80.50;;;;;;4971221;28;20746;-55
2023/04/30 03:13:50;;;;;;;13.50;6.40;;;11.90;99.90;;;;;;4971186;28;20392;-55
2023/04/30 03:16:16;;;;;;;14.43;6.60;;;11.80;99.90;;;;;;4970538;28;20447;-55
2023/04/30 03:18:45;;;;;;;14.50;6.28;;;11.80;1.00;;;;;;4971565;28;20415;-55
2023/04/30 03:21:10;;;;;;;13.15;6.50;;;11.80;1.00;;;;;;4970447;28;20443;-55
2023/04/30 03:23:36;;;;;;;14.37;6.70;;;11.80;1.00;;;;;;4971158;28;20431;-55
2023/04/30 03:26:02;;;;;;;13.25;7.20;;;11.70;90.60;;;;;;4970434;28;20912;-56
2023/04/30 03:28:27;;;;;;;15.90;7.30;;;11.60;99.90;;;;;;4970171;28;20412;-55
2023/04/30 03:30:53;;;;;;;15.10;7.32;;;11.60;99.90;;;;;;4970329;28;20408;-55
2023/04/30 03:33:19;;;;;;;15.40;7.10;;;11.60;1.00;;;;;;4971007;28;20396;-55
2023/04/30 03:35:44;;;;;;;13.80;6.90;;;11.50;1.00;;;;;;4971064;28;20419;-55
2023/04/30 03:38:10;;;;;;;15.27;7.57;;;11.50;1.00;;;;;;4970074;28;20395;-55
2023/04/30 03:40:36;;;;;;;14.27;7.22;;;11.50;1.00;;;;;;4971282;28;20479;-55
2023/04/30 03:43:02;;;;;;;16.07;7.40;;;11.30;99.90;;;;;;4970333;28;20936;-55
2023/04/30 03:45:27;;;;;;;17.33;7.50;;;11.40;99.90;;;;;;4970697;28;20817;-55
2023/04/30 03:47:53;;;;;;;15.27;7.50;;;11.50;1.00;;;;;;4970650;28;20420;-55
2023/04/30 03:50:19;;;;;;;13.43;6.60;;;11.50;1.00;;;;;;4970622;28;20877;-55
2023/04/30 03:52:45;;;;;;;15.32;7.10;;;11.60;1.00;;;;;;4970420;28;20936;-55
2023/04/30 03:55:11;;;;;;;15.37;7.47;;;11.70;99.90;;;;;;4970227;28;20447;-55
2023/04/30 03:57:39;;;;;;;15.80;7.47;;;11.60;99.90;;;;;;4970779;28;20412;-55
2023/04/30 04:00:15;;;;;;;15.20;7.60;;;11.60;86.20;;;;;;4969836;28;20483;-55
2023/04/30 04:02:41;;;;;;;15.47;7.40;;;11.60;99.90;;;;;;4970919;28;20463;-55
2023/04/30 04:05:07;;;;;;;13.85;6.78;;;11.70;99.90;;;;;;4970298;28;20735;-55
2023/04/30 04:07:33;;;;;;;14.70;7.17;;;11.80;1.00;;;;;;4970712;28;20388;-56
2023/04/30 04:09:58;;;;;;;14.98;7.50;;;11.90;99.90;;;;;;4969833;28;20395;-56
2023/04/30 04:12:24;;;;;;;16.50;7.50;;;12.00;99.90;;;;;;4970535;28;20473;-56
2023/04/30 04:14:49;;;;;;;15.35;7.03;;;12.00;35.60;;;;;;4970615;28;20697;-55
2023/04/30 04:17:15;;;;;;;14.07;6.97;;;12.10;99.90;;;;;;4969820;28;20928;-55
2023/04/30 04:19:41;;;;;;;15.53;7.50;;;12.20;99.90;;;;;;4969386;28;20424;-55
2023/04/30 04:22:06;;;;;;;15.60;7.38;;;12.20;99.90;;;;;;4970114;28;20403;-56
2023/04/30 04:24:32;;;;;;;13.43;6.53;;;12.20;1.00;;;;;;4970495;28;20514;-55
2023/04/30 04:26:58;;;;;;;15.30;6.95;;;12.20;1.00;;;;;;4970123;28;20407;-55
2023/04/30 04:29:24;;;;;;;12.37;6.50;;;12.20;1.00;;;;;;4970664;28;20408;-56
2023/04/30 04:31:50;;;;;;;17.35;8.10;;;12.30;99.90;;;;;;4970765;28;20475;-55
2023/04/30 04:34:16;;;;;;;15.13;6.82;;;12.30;1.00;;;;;;4969436;28;20492;-55
2023/04/30 04:36:42;;;;;;;14.23;7.13;;;12.30;1.00;;;;;;4970339;28;20819;-55
2023/04/30 04:39:08;;;;;;;15.70;7.50;;;12.20;1.00;;;;;;4970389;28;20388;-55
2023/04/30 04:41:35;;;;;;;17.25;7.50;;;12.20;1.00;;;;;;4971629;28;20516;-55
2023/04/30 04:44:02;;;;;;;15.60;7.30;;;12.20;1.00;;;;;;4973395;28;20400;-55
2023/04/30 04:46:29;;;;;;;14.38;6.90;;;12.10;99.90;;;;;;4973748;28;20392;-54
2023/04/30 04:48:54;;;;;;;14.10;7.32;;;12.10;1.00;;;;;;4973162;28;20388;-55
2023/04/30 04:51:20;;;;;;;13.48;6.70;;;12.20;1.00;;;;;;4973352;28;20396;-54
2023/04/30 04:53:46;;;;;;;17.30;8.00;;;12.30;47.20;;;;;;4973669;28;20392;-54
2023/04/30 04:56:12;;;;;;;15.03;7.20;;;12.40;99.90;;;;;;4972981;28;20451;-54
2023/04/30 04:58:38;;;;;;;14.82;7.13;;;12.50;99.90;;;;;;4973227;28;20408;-54
2023/04/30 05:01:04;;;;;;;16.15;7.85;;;12.50;99.90;;;;;;4973121;28;20400;-54
2023/04/30 05:03:31;;;;;;;14.13;7.50;;;12.50;99.90;;;;;;4973783;28;20435;-54
2023/04/30 05:05:57;;;;;;;13.45;7.30;;;12.60;99.90;;;;;;4972936;28;20396;-54
2023/04/30 05:08:23;;;;;;;14.40;7.32;;;12.70;99.90;;;;;;4973447;28;20389;-54
2023/04/30 05:10:49;;;;;;;13.43;7.03;;;12.70;99.90;;;;;;4973336;28;20731;-54
2023/04/30 05:13:14;;;;;;;16.20;7.38;;;12.80;21.50;;;;;;4972160;28;20676;-54
2023/04/30 05:15:40;;;;;;;20.57;8.27;;;12.70;1.00;;;;;;4973373;28;20420;-54
2023/04/30 05:18:05;;;;;;;16.20;7.87;;;12.60;1.00;;;;;;4972570;28;20488;-54
2023/04/30 05:20:31;;;;;;;14.55;7.50;;;12.60;2.90;;;;;;4973715;28;20395;-54
2023/04/30 05:22:57;;;;;;;16.40;6.97;;;12.50;1.00;;;;;;4972949;28;20385;-55
2023/04/30 05:25:22;;;;;;;17.43;7.83;;;12.70;1.00;;;;;;4972936;28;20799;-54
2023/04/30 05:27:48;;;;;;;14.75;7.57;;;12.80;1.00;;;;;;4972949;28;20430;-55
2023/04/30 05:30:18;;;;;;;17.70;7.30;;;12.80;1.00;;;;;;4972323;28;20968;-54
2023/04/30 05:32:49;;;;;;;15.47;7.80;;;13.10;1.00;;;;;;4973253;28;20470;-54
2023/04/30 05:35:18;;;;;;;15.73;7.97;;;13.30;1.00;;;;;;4972210;28;20395;-54
2023/04/30 05:37:44;;;;;;;16.42;7.60;;;13.20;99.90;;;;;;4973382;28;20408;-54
2023/04/30 05:40:11;;;;;;;15.48;7.63;;;12.90;99.90;;;;;;4971929;28;20474;-54
2023/04/30 05:42:37;;;;;;;16.42;8.20;;;13.00;1.00;;;;;;4972552;28;20443;-54
2023/04/30 05:45:03;;;;;;;16.10;7.87;;;13.20;1.00;;;;;;4972390;28;20389;-54
2023/04/30 05:47:30;;;;;;;14.13;7.90;;;13.20;99.90;;;;;;4972846;28;20400;-54
2023/04/30 05:49:56;;;;;;;15.23;7.70;;;13.10;99.90;;;;;;4972044;28;20396;-55
2023/04/30 05:52:22;;;;;;;15.10;7.30;;;13.10;99.90;;;;;;4972291;28;20463;-54
2023/04/30 05:54:47;;;;;;;14.97;8.00;;;13.20;99.90;;;;;;4972221;28;20881;-54
2023/04/30 05:57:13;;;;;;;17.52;8.07;;;13.20;99.90;;;;;;4971962;28;20486;-54
2023/04/30 05:59:39;;;;;;;15.70;7.63;;;13.40;99.90;;;;;;4972472;28;20404;-54
2023/04/30 06:02:05;;;;;;;15.85;7.78;;;13.40;99.90;;;;;;4971404;28;20401;-56
2023/04/30 06:04:31;;;;;;;17.10;8.63;;;13.20;99.90;;;;;;4967680;28;20419;-55
2023/04/30 06:06:57;;;;;;;18.70;8.47;;;13.40;99.90;;;;;;4959519;28;20756;-55
2023/04/30 06:09:22;;;;;;;15.48;7.80;;;13.60;99.90;;;;;;4969891;28;20400;-54
2023/04/30 06:11:49;;;;;;;17.23;7.73;;;13.70;99.90;;;;;;4953217;29;20386;-54
2023/04/30 06:14:16;;;;;;;16.93;8.80;;;13.70;99.90;;;;;;4958189;28;21141;-54
2023/04/30 06:16:43;;;;;;;17.77;7.80;;;13.90;99.90;;;;;;4960379;28;20418;-54
2023/04/30 06:19:12;;;;;;;15.60;7.70;;;14.10;99.90;;;;;;4971314;28;20391;-54
2023/04/30 06:21:39;;;;;;;14.25;7.50;;;14.50;99.90;;;;;;4971992;28;20396;-54
2023/04/30 06:24:05;;;;;;;15.02;8.00;;;14.80;9.60;;;;;;4971074;28;20399;-54
2023/04/30 06:26:31;;;;;;;15.98;8.23;;;15.00;1.00;;;;;;4969597;28;20398;-54
2023/04/30 06:28:57;;;;;;;16.25;7.40;;;15.10;1.00;;;;;;4969871;28;21021;-54
2023/04/30 06:31:22;;;;;;;14.50;7.60;;;15.20;1.00;;;;;;4971108;28;20487;-54
2023/04/30 06:33:49;;;;;;;15.15;7.65;;;15.70;1.00;;;;;;4970999;28;20746;-54
2023/04/30 06:36:15;;;;;;;14.13;7.30;;;15.90;1.00;;;;;;4970262;28;20497;-54
2023/04/30 06:38:41;;;;;;;14.55;7.38;;;16.00;1.00;;;;;;4971132;28;20788;-55
2023/04/30 06:41:07;;;;;;;13.82;7.25;;;16.40;1.00;;;;;;4969377;28;20392;-55
2023/04/30 06:43:32;;;;;;;13.57;7.13;;;17.00;1.00;;;;;;4971479;28;20394;-55
2023/04/30 06:45:58;;;;;;;16.05;7.60;;;17.70;1.00;;;;;;4970272;28;20761;-55
2023/04/30 06:48:24;;;;;;;14.15;6.53;;;18.40;1.00;;;;;;4971286;28;20530;-55
2023/04/30 06:50:50;;;;;;;14.32;7.55;;;19.50;1.00;;;;;;4970977;28;20470;-55
2023/04/30 06:53:15;;;;;;;12.88;6.65;;;20.30;99.90;;;;;;4970123;28;20842;-55
2023/04/30 06:55:41;;;;;;;13.07;6.97;;;20.40;99.90;;;;;;4970847;28;20550;-55
2023/04/30 06:58:07;;;;;;;13.13;7.17;;;19.60;99.90;;;;;;4970194;28;20396;-55
2023/04/30 07:00:33;;;;;;;14.00;7.88;;;19.30;99.90;;;;;;4951504;28;20397;-55
2023/04/30 07:03:01;;;;;;;13.10;6.43;;;19.30;99.90;;;;;;4970417;28;20416;-55
2023/04/30 07:05:27;;;;;;;13.05;7.57;;;18.90;99.90;;;;;;4970554;28;20399;-55
2023/04/30 07:07:53;;;;;;;16.70;7.90;;;18.40;99.90;;;;;;4970638;28;20388;-55
2023/04/30 07:10:18;;;;;;;13.00;6.70;;;17.70;99.90;;;;;;4969458;28;20439;-55
2023/04/30 07:12:45;;;;;;;14.55;7.75;;;17.20;99.90;;;;;;4970823;28;20762;-55
2023/04/30 07:15:10;;;;;;;14.23;7.10;;;16.80;99.90;;;;;;4964294;28;20416;-55
2023/04/30 07:17:37;;;;;;;15.82;7.60;;;17.20;99.90;;;;;;4967891;28;20400;-55
2023/04/30 07:20:06;;;;;;;15.23;8.00;;;17.50;99.90;;;;;;4964716;28;20408;-55
2023/04/30 07:22:32;;;;;;;13.10;6.65;;;17.40;99.90;;;;;;4965811;28;20444;-55
2023/04/30 07:24:58;;;;;;;14.75;7.45;;;17.90;99.90;;;;;;4969906;28;20882;-55
2023/04/30 07:27:24;;;;;;;13.18;6.88;;;18.00;99.90;;;;;;4964141;28;20427;-55
2023/04/30 07:29:50;;;;;;;14.90;7.80;;;17.70;99.90;;;;;;4967591;28;20404;-55
2023/04/30 07:32:16;;;;;;;15.90;7.63;;;18.00;99.90;;;;;;4959609;28;20386;-55
2023/04/30 07:34:42;;;;;;;14.73;7.50;;;18.30;99.90;;;;;;4977515;28;20462;-55
2023/04/30 07:37:08;;;;;;;13.75;7.10;;;19.30;99.90;;;;;;4967988;28;20420;-56
2023/04/30 07:39:37;;;;;;;13.75;7.28;;;20.40;99.90;;;;;;4966311;28;20395;-55
2023/04/30 07:42:03;;;;;;;12.68;6.45;;;20.90;99.90;;;;;;4968993;28;20392;-55
2023/04/30 07:44:32;;;;;;;13.13;7.00;;;21.10;99.90;;;;;;4969569;28;20407;-55
2023/04/30 07:46:57;;;;;;;13.95;7.10;;;21.60;99.90;;;;;;4970149;28;20525;-57
2023/04/30 07:49:24;;;;;;;11.00;6.50;;;22.40;99.90;;;;;;4966760;28;20822;-60
2023/04/30 07:51:51;;;;;;;13.73;7.03;;;22.90;99.90;;;;;;4969782;28;20877;-56
2023/04/30 07:54:16;;;;;;;14.48;8.40;;;23.30;99.90;;;;;;4961983;28;20918;-56
2023/04/30 07:56:43;;;;;;;11.90;7.75;;;23.80;99.90;;;;;;4959563;28;20416;-56
2023/04/30 07:59:09;;;;;;;13.40;7.47;;;23.10;99.90;;;;;;4969491;28;20734;-56
2023/04/30 08:01:35;;;;;;;13.32;7.45;;;22.80;99.90;;;;;;4964706;28;20397;-56
2023/04/30 08:04:00;;;;;;;11.37;7.00;;;23.30;99.90;;;;;;4969756;28;20527;-56
2023/04/30 08:06:29;;;;;;;11.80;7.60;;;23.60;99.90;;;;;;4967544;28;20862;-56
2023/04/30 08:08:54;;;;;;;11.90;7.20;;;23.50;99.90;;;;;;4967990;28;20432;-57
2023/04/30 08:11:20;;;;;;;11.67;7.70;;;23.60;99.90;;;;;;4965520;28;20443;-56
2023/04/30 08:13:46;;;;;;;10.90;7.37;;;23.90;99.90;;;;;;4966822;28;20475;-56
2023/04/30 08:16:11;;;;;;;11.23;6.57;;;23.90;99.90;;;;;;4964549;28;20424;-56
2023/04/30 08:18:38;;;;;;;12.07;7.63;;;24.20;99.90;;;;;;4959948;28;20444;-56
2023/04/30 08:21:05;;;;;;;9.90;4.60;;;25.10;99.90;;;;;;4962182;28;20771;-57
2023/04/30 08:23:30;;;;;;;9.10;4.70;;;25.90;99.90;;;;;;4973036;28;20415;-57
2023/04/30 08:25:56;;;;;;;10.07;5.03;;;26.30;99.90;;;;;;4970157;28;20390;-57
2023/04/30 08:28:22;;;;;;;10.30;5.20;;;25.60;99.90;;;;;;4978376;28;20404;-56
2023/04/30 08:30:47;;;;;;;10.83;9.33;;;24.90;99.90;;;;;;4969754;28;20413;-56
2023/04/30 08:33:13;;;;;;;11.50;8.80;;;24.50;99.90;;;;;;4970582;28;20479;-56
2023/04/30 08:35:38;;;;;;;10.90;8.17;;;22.80;99.90;;;;;;4961332;28;20421;-56
2023/04/30 08:38:04;;;;;;;10.20;6.77;;;21.00;99.90;;;;;;4966165;28;20747;-56
2023/04/30 08:40:33;;;;;;;10.77;6.90;;;20.10;99.90;;;;;;4963824;28;20397;-56
2023/04/30 08:43:10;;;;;;;11.80;6.30;;;19.00;99.90;;;;;;4967574;28;20392;-55
2023/04/30 08:45:36;;;;;;;10.60;5.70;;;18.30;99.90;;;;;;4960108;28;20733;-55
2023/04/30 08:48:03;;;;;;;10.50;5.53;;;17.70;99.90;;;;;;4973137;28;20396;-55
2023/04/30 08:50:29;;;;;;;8.95;5.00;;;17.60;99.90;;;;;;4973530;28;20387;-55
2023/04/30 08:52:57;;;;;;;9.70;4.88;;;17.90;99.90;;;;;;4970098;28;20392;-56
2023/04/30 08:55:25;;;;;;;8.02;3.92;;;18.00;99.90;;;;;;4966219;28;20475;-55
2023/04/30 08:57:50;;;;;;;9.37;4.70;;;17.90;99.90;;;;;;4967876;28;20404;-55
2023/04/30 09:00:16;;;;;;;8.15;4.20;;;17.60;99.90;;;;;;4965027;28;20411;-55
2023/04/30 09:02:42;;;;;;;8.03;4.03;;;17.60;99.90;;;;;;4970862;28;20451;-55
2023/04/30 09:05:12;;;;;;;10.73;4.40;;;17.90;99.90;;;;;;4972183;28;20412;-55
2023/04/30 09:07:43;;;;;;;8.10;4.50;;;18.90;99.90;;;;;;4967476;28;20408;-55
2023/04/30 09:10:14;;;;;;;8.50;4.30;;;19.90;99.90;;;;;;4956858;28;20386;-56
2023/04/30 09:12:42;;;;;;;8.85;4.40;;;19.50;99.90;;;;;;4967526;28;20403;-56
2023/04/30 09:15:08;;;;;;;7.80;4.30;;;18.90;99.90;;;;;;4968210;28;20399;-56
2023/04/30 09:17:34;;;;;;;8.88;3.80;;;18.30;99.90;;;;;;4965089;28;20786;-55
2023/04/30 09:20:07;;;;;;;7.85;4.20;;;17.70;99.90;;;;;;4964228;28;20901;-55
2023/04/30 09:22:33;;;;;;;8.25;3.90;;;17.80;99.90;;;;;;4963787;28;20390;-56
2023/04/30 09:24:59;;;;;;;8.60;4.55;;;18.30;99.90;;;;;;4964429;28;20858;-56
2023/04/30 09:27:25;;;;;;;8.27;4.30;;;18.60;99.90;;;;;;4962162;28;20457;-55
2023/04/30 09:29:50;;;;;;;7.90;3.80;;;18.70;99.90;;;;;;4964792;28;20389;-55
2023/04/30 09:32:16;;;;;;;7.97;4.20;;;18.60;99.90;;;;;;4961347;28;20985;-56
2023/04/30 09:34:42;;;;;;;9.07;4.10;;;18.70;99.90;;;;;;4963410;28;20384;-55
2023/04/30 09:37:09;;;;;;;8.13;3.80;;;18.60;99.90;;;;;;4958730;28;20448;-55
2023/04/30 09:39:55;;;;;;;7.75;4.10;;;18.30;99.90;;;;;;4963939;28;20476;-55
2023/04/30 09:42:21;;;;;;;7.65;3.95;;;17.50;99.90;;;;;;4959576;28;20895;-56
2023/04/30 09:44:47;;;;;;;8.93;4.30;;;17.30;99.90;;;;;;4963049;28;20749;-55
2023/04/30 09:47:18;;;;;;;7.80;4.20;;;17.50;99.90;;;;;;4958899;28;20891;-55
2023/04/30 09:49:47;;;;;;;8.23;3.92;;;17.60;99.90;;;;;;4961433;28;20460;-55
2023/04/30 09:52:15;;;;;;;7.80;3.90;;;17.90;99.90;;;;;;4958698;28;20394;-55
2023/04/30 09:54:44;;;;;;;8.20;4.30;;;17.70;99.90;;;;;;4959534;28;20398;-55
2023/04/30 09:57:12;;;;;;;12.38;4.90;;;17.80;99.90;;;;;;4965823;28;20442;-55
2023/04/30 09:59:42;;;;;;;8.60;4.20;;;18.10;99.90;;;;;;4968259;28;20439;-58
2023/04/30 10:02:08;;;;;;;8.50;4.10;;;18.30;99.90;;;;;;4967270;28;20402;-58
2023/04/30 10:04:37;;;;;;;7.55;3.50;;;18.40;99.90;;;;;;4972151;28;20386;-58
2023/04/30 10:07:09;;;;;;;7.63;3.80;;;18.60;99.90;;;;;;4970945;28;20459;-58
2023/04/30 10:10:03;;;;;;;7.33;3.63;;;18.90;99.90;;;;;;4970350;28;20416;-58
2023/04/30 10:13:00;;;;;;;7.78;4.05;;;19.00;99.90;;;;;;4965943;28;20423;-58
2023/04/30 10:15:34;;;;;;;6.70;3.40;;;19.00;99.90;;;;;;4968451;28;20415;-58
2023/04/30 10:18:04;;;;;;;7.68;4.30;;;18.80;99.90;;;;;;4967360;28;20410;-58
2023/04/30 10:20:33;;;;;;;7.85;4.20;;;19.50;99.90;;;;;;4971538;28;20463;-58
2023/04/30 10:23:00;;;;;;;8.65;3.88;;;20.30;99.90;;;;;;4967351;28;20427;-58
2023/04/30 10:25:27;;;;;;;9.25;4.00;;;20.70;99.90;;;;;;4966958;28;20392;-58
2023/04/30 10:27:53;;;;;;;8.15;4.40;;;20.30;99.90;;;;;;4967656;28;20465;-58
2023/04/30 10:30:21;;;;;;;8.30;4.30;;;19.60;99.90;;;;;;4970111;28;20396;-59
2023/04/30 10:32:50;;;;;;;8.20;4.00;;;19.10;99.90;;;;;;4963864;28;20424;-58
2023/04/30 10:35:22;;;;;;;7.57;3.83;;;18.90;99.90;;;;;;4968765;28;20400;-58
2023/04/30 10:37:58;;;;;;;8.20;4.10;;;18.70;99.90;;;;;;4970687;28;20412;-60
2023/04/30 10:40:26;;;;;;;8.38;4.80;;;18.60;99.90;;;;;;4970678;28;20393;-58
2023/04/30 10:42:53;;;;;;;7.50;4.10;;;18.50;99.90;;;;;;4965559;28;20419;-58
2023/04/30 10:45:34;;;;;;;7.68;4.07;;;18.40;99.90;;;;;;4967077;28;20392;-58
2023/04/30 10:48:02;;;;;;;8.70;4.45;;;18.30;99.90;;;;;;4965759;28;20448;-59
2023/04/30 10:50:29;;;;;;;10.50;4.30;;;18.10;99.90;;;;;;4970181;28;20431;-58
2023/04/30 10:53:04;;;;;;;7.75;4.50;;;18.30;99.90;;;;;;4972534;28;20402;-58
2023/04/30 10:55:30;;;;;;;7.90;3.95;;;18.40;99.90;;;;;;4970594;28;20398;-58
2023/04/30 10:57:59;;;;;;;7.32;3.53;;;18.10;99.90;;;;;;4969806;28;20431;-58
2023/04/30 11:00:27;;;;;;;7.78;3.70;;;18.20;99.90;;;;;;4970420;28;20393;-58
2023/04/30 11:03:02;;;;;;;8.65;4.10;;;18.20;99.90;;;;;;4970212;28;20471;-58
2023/04/30 11:05:38;;;;;;;8.68;4.60;;;18.50;99.90;;;;;;4970247;28;20392;-57
2023/04/30 11:08:05;;;;;;;7.50;4.13;;;18.80;99.90;;;;;;4967618;28;20388;-57
2023/04/30 11:10:34;;;;;;;8.40;4.10;;;19.10;99.90;;;;;;4970460;28;20406;-57
2023/04/30 11:13:09;;;;;;;7.70;4.40;;;19.10;99.90;;;;;;4966610;28;20392;-57
2023/04/30 11:15:40;;;;;;;9.03;4.47;;;19.50;99.90;;;;;;4969414;28;20455;-57
2023/04/30 11:18:07;;;;;;;9.27;4.23;;;19.70;99.90;;;;;;4969663;28;20388;-57
2023/04/30 11:20:38;;;;;;;7.78;4.38;;;20.20;99.90;;;;;;4970667;28;20398;-57
2023/04/30 11:23:16;;;;;;;7.15;3.70;;;20.50;99.90;;;;;;4967380;28;20389;-57
2023/04/30 11:25:47;;;;;;;8.88;4.70;;;20.90;99.90;;;;;;4969100;28;20412;-57
2023/04/30 11:28:17;;;;;;;10.52;4.72;;;20.70;99.90;;;;;;4972178;28;20721;-57
2023/04/30 11:30:58;;;;;;;8.30;4.43;;;20.40;99.90;;;;;;4976207;28;20772;-57
2023/04/30 11:33:28;;;;;;;8.85;4.75;;;20.70;99.90;;;;;;4973349;28;20934;-57
2023/04/30 11:35:55;;;;;;;8.57;4.60;;;21.20;99.90;;;;;;4970068;28;20512;-57
2023/04/30 11:38:25;;;;;;;9.70;4.80;;;21.10;99.90;;;;;;4970064;28;20483;-57
2023/04/30 11:40:51;;;;;;;9.57;4.70;;;20.80;99.90;;;;;;4971238;28;20711;-57
2023/04/30 11:43:25;;;;;;;9.05;5.13;;;20.40;99.90;;;;;;4968624;28;20401;-57
2023/04/30 11:46:12;;;;;;;8.60;4.50;;;20.00;99.90;;;;;;4973552;28;20400;-57
2023/04/30 11:48:43;;;;;;;9.23;4.95;;;19.90;99.90;;;;;;4970839;28;20467;-57
2023/04/30 11:51:20;;;;;;;11.43;4.70;;;19.70;99.90;;;;;;4972552;28;20389;-57
2023/04/30 11:53:51;;;;;;;9.05;4.70;;;19.50;99.90;;;;;;4984052;28;20789;-57
2023/04/30 11:56:24;;;;;;;10.65;4.50;;;19.10;99.90;;;;;;4976189;28;20415;-57
2023/04/30 11:58:51;;;;;;;9.63;5.00;;;19.00;99.90;;;;;;4981030;28;20885;-58
2023/04/30 12:01:17;;;;;;;8.88;4.72;;;19.50;99.90;;;;;;4976719;28;20404;-58
2023/04/30 12:03:48;;;;;;;9.27;4.30;;;19.70;99.90;;;;;;4973707;28;20404;-57
2023/04/30 12:06:27;;;;;;;9.40;4.40;;;20.00;99.90;;;;;;4970426;28;20391;-58
2023/04/30 12:08:57;;;;;;;11.00;4.90;;;20.30;99.90;;;;;;4971466;28;20900;-57
2023/04/30 12:11:25;;;;;;;8.57;4.47;;;20.20;99.90;;;;;;4973617;28;20399;-57
2023/04/30 12:13:52;;;;;;;7.70;4.22;;;19.90;99.90;;;;;;4973793;28;20407;-57
2023/04/30 12:16:18;;;;;;;9.15;4.40;;;19.60;99.90;;;;;;4973265;28;20411;-57
2023/04/30 12:18:44;;;;;;;10.50;4.40;;;19.40;99.90;;;;;;4974261;28;20545;-57
2023/04/30 12:21:10;;;;;;;8.77;4.43;;;19.50;99.90;;;;;;4973466;28;20396;-57
2023/04/30 12:23:36;;;;;;;7.77;4.10;;;19.20;99.90;;;;;;4955367;28;20532;-57
2023/04/30 12:26:02;;;;;;;8.38;4.28;;;19.60;99.90;;;;;;4971291;28;20412;-58
2023/04/30 12:28:27;;;;;;;9.10;4.50;;;19.50;99.90;;;;;;4974015;28;20490;-58
2023/04/30 12:30:53;;;;;;;7.33;4.00;;;19.70;99.90;;;;;;4972128;28;20404;-58
2023/04/30 12:33:19;;;;;;;9.33;4.77;;;19.80;99.90;;;;;;4970439;28;20414;-58
2023/04/30 12:35:44;;;;;;;8.00;4.35;;;19.80;99.90;;;;;;4973752;28;20431;-58
2023/04/30 12:38:14;;;;;;;7.38;4.05;;;19.60;99.90;;;;;;4970826;28;20412;-58
2023/04/30 12:40:47;;;;;;;7.50;4.50;;;19.10;99.90;;;;;;4954638;29;20397;-58
2023/04/30 12:43:15;;;;;;;8.77;4.78;;;18.80;99.90;;;;;;4954331;29;20441;-58
2023/04/30 12:45:54;;;;;;;11.20;4.95;;;18.90;99.90;;;;;;4954925;29;20394;-58